createdAt,value
2018-07-15T00:00:41.637Z,56.02
2018-07-15T00:03:11.077Z,56.95
2018-07-15T00:05:40.419Z,57.46
2018-07-15T00:08:09.696Z,57.19
2018-07-15T00:10:46.728Z,57.14
2018-07-15T00:13:16.042Z,58.08
2018-07-15T00:15:45.563Z,57.59
2018-07-15T00:18:14.819Z,57.52
2018-07-15T00:20:44.152Z,58.36
2018-07-15T00:23:13.456Z,58.27
2018-07-15T00:25:42.702Z,59.12
2018-07-15T00:28:12.022Z,58.74
2018-07-15T00:30:41.303Z,58.59
2018-07-15T00:33:10.662Z,60.13
2018-07-15T00:35:39.979Z,60.42
2018-07-15T00:38:09.405Z,60.59
2018-07-15T00:40:38.707Z,60.97
2018-07-15T00:43:08.231Z,60.56
2018-07-15T00:45:37.544Z,60.59
2018-07-15T00:48:06.860Z,61.13
2018-07-15T00:50:36.108Z,60.68
2018-07-15T00:53:05.387Z,61.41
2018-07-15T00:55:34.697Z,61.62
2018-07-15T00:58:04.295Z,61.43
2018-07-15T01:00:39.088Z,61.71
2018-07-15T01:03:08.691Z,62.20
2018-07-15T01:05:38.173Z,63.21
2018-07-15T01:08:07.726Z,62.12
2018-07-15T01:10:37.054Z,62.42
2018-07-15T01:13:06.459Z,62.83
2018-07-15T01:15:35.561Z,63.23
2018-07-15T01:18:04.930Z,63.29
2018-07-15T01:20:34.223Z,63.83
2018-07-15T01:23:03.489Z,63.11
2018-07-15T01:25:32.767Z,63.65
2018-07-15T01:28:02.121Z,63.35
2018-07-15T01:30:31.394Z,64.12
2018-07-15T01:33:00.772Z,64.05
2018-07-15T01:35:30.084Z,64.74
2018-07-15T01:37:59.353Z,64.19
2018-07-15T01:40:28.617Z,64.13
2018-07-15T01:42:57.898Z,65.14
2018-07-15T01:45:27.185Z,64.58
2018-07-15T01:47:56.559Z,64.84
2018-07-15T01:50:25.879Z,65.26
2018-07-15T01:52:55.181Z,65.01
2018-07-15T01:55:24.201Z,65.28
2018-07-15T01:57:53.450Z,65.04
2018-07-15T02:00:22.823Z,64.67
2018-07-15T02:02:56.171Z,64.80
2018-07-15T02:05:25.510Z,65.80
2018-07-15T02:07:54.772Z,64.82
2018-07-15T02:10:24.056Z,65.39
2018-07-15T02:12:53.330Z,65.50
2018-07-15T02:15:22.649Z,64.92
2018-07-15T02:17:52.114Z,66.12
2018-07-15T02:20:21.433Z,66.04
2018-07-15T02:22:50.869Z,66.12
2018-07-15T02:25:20.136Z,66.69
2018-07-15T02:27:49.389Z,66.04
2018-07-15T02:30:18.688Z,66.80
2018-07-15T02:32:47.825Z,66.11
2018-07-15T02:35:17.173Z,67.13
2018-07-15T02:37:46.449Z,66.83
2018-07-15T02:40:15.724Z,66.91
2018-07-15T02:42:45.154Z,67.54
2018-07-15T02:45:14.548Z,67.48
2018-07-15T02:47:43.808Z,67.70
2018-07-15T02:50:13.203Z,68.29
2018-07-15T02:52:42.355Z,68.53
2018-07-15T02:55:11.634Z,68.42
2018-07-15T02:57:40.907Z,68.95
2018-07-15T03:00:10.209Z,69.38
2018-07-15T03:02:39.569Z,69.25
2018-07-15T03:05:08.813Z,70.21
2018-07-15T03:07:38.086Z,69.56
2018-07-15T03:10:07.149Z,69.27
2018-07-15T03:12:36.420Z,69.69
2018-07-15T03:15:05.713Z,70.61
2018-07-15T03:17:34.998Z,70.10
2018-07-15T03:20:04.269Z,70.67
2018-07-15T03:22:33.555Z,70.35
2018-07-15T03:25:02.828Z,70.86
2018-07-15T03:27:32.100Z,71.51
2018-07-15T03:30:01.353Z,71.28
2018-07-15T03:32:30.633Z,70.65
2018-07-15T03:34:59.900Z,71.77
2018-07-15T03:37:29.258Z,71.32
2018-07-15T03:39:58.607Z,72.31
2018-07-15T03:42:27.848Z,71.89
2018-07-15T03:44:57.202Z,72.00
2018-07-15T03:47:26.503Z,71.02
2018-07-15T03:49:55.833Z,71.52
2018-07-15T03:52:25.160Z,71.15
2018-07-15T03:54:54.507Z,71.55
2018-07-15T03:57:23.848Z,71.71
2018-07-15T03:59:52.881Z,70.67
2018-07-15T04:02:22.179Z,70.85
2018-07-15T04:04:51.236Z,71.05
2018-07-15T04:07:20.585Z,70.34
2018-07-15T04:09:49.837Z,70.65
2018-07-15T04:12:19.251Z,70.22
2018-07-15T04:14:48.384Z,70.85
2018-07-15T04:17:17.646Z,70.48
2018-07-15T04:19:46.912Z,70.36
2018-07-15T04:22:16.180Z,70.24
2018-07-15T04:24:45.484Z,70.19
2018-07-15T04:27:14.631Z,69.97
2018-07-15T04:29:43.979Z,70.59
2018-07-15T04:32:13.279Z,69.91
2018-07-15T04:34:43.698Z,69.50
2018-07-15T04:37:12.981Z,68.22
2018-07-15T04:39:42.275Z,67.95
2018-07-15T04:42:11.570Z,67.01
2018-07-15T04:44:40.882Z,66.08
2018-07-15T04:47:10.268Z,66.99
2018-07-15T04:49:39.638Z,67.42
2018-07-15T04:52:09.023Z,67.17
2018-07-15T04:54:38.403Z,67.05
2018-07-15T04:57:07.834Z,66.96
2018-07-15T04:59:37.258Z,66.53
2018-07-15T05:02:06.626Z,65.30
2018-07-15T05:04:35.928Z,65.75
2018-07-15T05:07:05.469Z,65.28
2018-07-15T05:09:34.806Z,64.08
2018-07-15T05:12:04.047Z,63.14
2018-07-15T05:14:33.367Z,62.97
2018-07-15T05:17:02.637Z,61.92
2018-07-15T05:19:31.909Z,60.91
2018-07-15T05:22:01.288Z,61.21
2018-07-15T05:24:30.565Z,60.52
2018-07-15T05:26:59.985Z,60.00
2018-07-15T05:29:29.558Z,59.49
2018-07-15T05:31:58.871Z,58.79
2018-07-15T05:34:28.272Z,57.88
2018-07-15T05:36:57.694Z,57.08
2018-07-15T05:39:27.026Z,56.93
2018-07-15T05:41:56.317Z,55.88
2018-07-15T05:44:25.667Z,54.95
2018-07-15T05:46:54.970Z,55.30
2018-07-15T05:49:24.260Z,54.20
2018-07-15T05:51:53.540Z,53.56
2018-07-15T05:54:22.895Z,53.04
2018-07-15T05:56:52.171Z,52.21
2018-07-15T05:59:21.502Z,51.76
2018-07-15T06:01:50.789Z,51.64
2018-07-15T06:04:20.152Z,50.29
2018-07-15T06:06:49.403Z,49.92
2018-07-15T06:09:18.888Z,50.15
2018-07-15T06:11:47.943Z,48.69
2018-07-15T06:14:17.386Z,47.32
2018-07-15T06:16:46.728Z,47.89
2018-07-15T06:19:16.013Z,47.00
2018-07-15T06:21:45.320Z,46.78
2018-07-15T06:24:14.674Z,46.44
2018-07-15T06:26:44.060Z,45.47
2018-07-15T06:29:13.524Z,43.82
2018-07-15T06:31:42.995Z,44.29
2018-07-15T06:34:12.333Z,44.01
2018-07-15T06:36:41.726Z,44.06
2018-07-15T06:39:11.077Z,42.89
2018-07-15T06:41:40.422Z,41.90
2018-07-15T06:44:09.807Z,41.67
2018-07-15T06:46:39.206Z,42.27
2018-07-15T06:49:08.611Z,41.43
2018-07-15T06:51:37.930Z,41.25
2018-07-15T06:54:07.169Z,40.17
2018-07-15T06:56:36.541Z,40.14
2018-07-15T06:59:06.049Z,39.70
2018-07-15T07:01:35.475Z,38.34
2018-07-15T07:04:04.914Z,39.26
2018-07-15T07:06:34.253Z,39.21
2018-07-15T07:09:05.098Z,38.00
2018-07-15T07:11:34.853Z,38.74
2018-07-15T07:14:04.452Z,38.54
2018-07-15T07:16:33.961Z,37.76
2018-07-15T07:19:03.511Z,37.24
2018-07-15T07:21:32.949Z,36.89
2018-07-15T07:24:02.369Z,35.68
2018-07-15T07:26:31.739Z,36.05
2018-07-15T07:29:01.104Z,34.86
2018-07-15T07:31:30.379Z,34.50
2018-07-15T07:33:59.782Z,34.44
2018-07-15T07:36:29.095Z,35.27
2018-07-15T07:38:58.469Z,34.80
2018-07-15T07:41:27.829Z,32.37
2018-07-15T07:43:56.938Z,32.97
2018-07-15T07:46:26.230Z,31.40
2018-07-15T07:48:55.594Z,31.41
2018-07-15T07:51:24.886Z,30.92
2018-07-15T07:53:54.297Z,29.84
2018-07-15T07:56:23.725Z,30.32
2018-07-15T07:58:53.047Z,28.51
2018-07-15T08:01:22.295Z,28.59
2018-07-15T08:03:51.567Z,28.85
2018-07-15T08:06:20.879Z,27.67
2018-07-15T08:08:50.144Z,28.72
2018-07-15T08:11:19.882Z,28.46
2018-07-15T08:13:49.819Z,28.60
2018-07-15T08:16:19.134Z,27.44
2018-07-15T08:18:49.468Z,28.07
2018-07-15T08:21:19.324Z,27.73
2018-07-15T08:23:48.679Z,28.41
2018-07-15T08:26:17.982Z,27.44
2018-07-15T08:28:47.664Z,28.02
2018-07-15T08:31:18.830Z,26.29
2018-07-15T08:33:48.513Z,27.19
2018-07-15T08:36:18.173Z,27.58
2018-07-15T08:38:47.591Z,27.14
2018-07-15T08:41:17.188Z,26.56
2018-07-15T08:43:47.193Z,26.37
2018-07-15T08:46:16.463Z,26.06
2018-07-15T08:48:45.875Z,26.40
2018-07-15T08:51:14.948Z,26.98
2018-07-15T08:53:44.299Z,27.28
2018-07-15T08:56:13.601Z,25.09
2018-07-15T08:58:43.117Z,26.53
2018-07-15T09:01:12.449Z,25.96
2018-07-15T09:03:42.393Z,26.01
2018-07-15T09:06:12.339Z,24.74
2018-07-15T09:08:41.763Z,25.08
2018-07-15T09:11:11.220Z,24.77
2018-07-15T09:13:40.292Z,24.86
2018-07-15T09:16:09.869Z,25.39
2018-07-15T09:18:39.530Z,22.76
2018-07-15T09:21:09.868Z,23.12
2018-07-15T09:23:39.422Z,21.96
2018-07-15T09:26:08.971Z,23.39
2018-07-15T09:28:38.464Z,25.31
2018-07-15T09:31:07.994Z,24.17
2018-07-15T09:33:37.456Z,22.99
2018-07-15T09:36:06.742Z,23.04
2018-07-15T09:38:36.036Z,23.72
2018-07-15T09:41:05.363Z,23.23
2018-07-15T09:43:34.657Z,23.77
2018-07-15T09:46:04.000Z,22.14
2018-07-15T09:48:33.412Z,22.43
2018-07-15T09:51:02.807Z,21.22
2018-07-15T09:53:32.256Z,21.50
2018-07-15T09:56:01.516Z,21.37
2018-07-15T09:58:30.944Z,21.99
2018-07-15T10:01:00.392Z,22.70
2018-07-15T10:03:29.816Z,22.42
2018-07-15T10:05:59.306Z,23.12
2018-07-15T10:08:28.688Z,23.61
2018-07-15T10:10:57.986Z,24.02
2018-07-15T10:13:27.266Z,24.24
2018-07-15T10:15:56.594Z,24.90
2018-07-15T10:18:26.005Z,23.67
2018-07-15T10:20:55.303Z,24.01
2018-07-15T10:23:24.657Z,25.04
2018-07-15T10:25:54.048Z,24.57
2018-07-15T10:28:23.362Z,25.05
2018-07-15T10:30:52.658Z,25.25
2018-07-15T10:33:22.022Z,24.45
2018-07-15T10:35:51.266Z,25.23
2018-07-15T10:38:20.720Z,24.67
2018-07-15T10:40:49.971Z,23.95
2018-07-15T10:43:19.249Z,23.35
2018-07-15T10:45:48.502Z,23.66
2018-07-15T10:48:17.823Z,23.17
2018-07-15T10:50:47.110Z,24.84
2018-07-15T10:53:16.447Z,23.25
2018-07-15T10:55:45.764Z,23.49
2018-07-15T10:58:15.223Z,23.77
2018-07-15T11:00:44.986Z,24.19
2018-07-15T11:03:14.593Z,23.10
2018-07-15T11:05:44.122Z,23.67
2018-07-15T11:08:13.720Z,23.68
2018-07-15T11:10:43.089Z,24.17
2018-07-15T11:13:12.658Z,22.83
2018-07-15T11:15:42.292Z,24.85
2018-07-15T11:18:11.784Z,24.30
2018-07-15T11:20:41.205Z,23.82
2018-07-15T11:23:10.640Z,23.65
2018-07-15T11:25:40.166Z,24.82
2018-07-15T11:28:09.679Z,24.47
2018-07-15T11:30:38.785Z,23.33
2018-07-15T11:33:08.123Z,23.17
2018-07-15T11:35:37.753Z,24.14
2018-07-15T11:38:07.163Z,24.22
2018-07-15T11:40:36.534Z,22.85
2018-07-15T11:43:05.803Z,24.31
2018-07-15T11:45:35.093Z,22.73
2018-07-15T11:48:04.421Z,23.88
2018-07-15T11:50:33.712Z,22.90
2018-07-15T11:53:02.992Z,22.97
2018-07-15T11:55:32.325Z,23.89
2018-07-15T11:58:01.623Z,23.88
2018-07-15T12:00:30.856Z,23.11
2018-07-15T12:03:00.123Z,23.79
2018-07-15T12:05:29.634Z,22.02
2018-07-15T12:07:59.018Z,23.08
2018-07-15T12:10:28.281Z,23.83
2018-07-15T12:12:57.565Z,23.46
2018-07-15T12:15:26.823Z,23.92
2018-07-15T12:17:56.162Z,23.70
2018-07-15T12:20:25.549Z,23.53
2018-07-15T12:22:54.760Z,22.66
2018-07-15T12:25:24.063Z,22.97
2018-07-15T12:27:53.384Z,22.74
2018-07-15T12:30:22.821Z,21.75
2018-07-15T12:32:52.089Z,22.29
2018-07-15T12:35:21.530Z,21.79
2018-07-15T12:37:50.791Z,22.79
2018-07-15T12:40:20.077Z,22.26
2018-07-15T12:42:49.629Z,22.40
2018-07-15T12:45:18.937Z,23.77
2018-07-15T12:47:48.437Z,22.81
2018-07-15T12:50:17.709Z,24.04
2018-07-15T12:52:51.529Z,24.41
2018-07-15T12:55:21.008Z,23.98
2018-07-15T12:57:53.875Z,23.31
2018-07-15T13:00:25.411Z,23.33
2018-07-15T13:02:54.763Z,22.05
2018-07-15T13:05:26.390Z,23.40
2018-07-15T13:07:56.393Z,22.77
2018-07-15T13:10:31.263Z,23.59
2018-07-15T13:13:01.645Z,23.12
2018-07-15T13:15:33.252Z,22.22
2018-07-15T13:18:06.638Z,23.09
2018-07-15T13:20:36.909Z,21.25
2018-07-15T13:23:06.287Z,22.58
2018-07-15T13:25:41.226Z,20.85
2018-07-15T13:28:13.461Z,22.62
2018-07-15T13:30:43.594Z,22.52
2018-07-15T13:33:13.233Z,22.24
2018-07-15T13:35:46.705Z,23.71
2018-07-15T13:38:19.132Z,22.71
2018-07-15T13:40:50.445Z,22.35
2018-07-15T13:43:20.085Z,22.11
2018-07-15T13:45:50.707Z,22.55
2018-07-15T13:48:27.169Z,22.31
2018-07-15T13:50:56.995Z,23.11
2018-07-15T13:53:27.468Z,23.58
2018-07-15T13:55:57.181Z,22.87
2018-07-15T13:58:30.060Z,23.30
2018-07-15T14:01:00.587Z,22.37
2018-07-15T14:03:33.009Z,22.26
2018-07-15T14:06:03.351Z,23.44
2018-07-15T14:08:32.889Z,23.23
2018-07-15T14:11:02.813Z,24.03
2018-07-15T14:13:34.486Z,22.32
2018-07-15T14:16:03.886Z,23.46
2018-07-15T14:18:36.311Z,24.67
2018-07-15T14:21:07.464Z,23.46
2018-07-15T14:23:38.124Z,24.30
2018-07-15T14:26:12.941Z,22.86
2018-07-15T14:28:42.354Z,24.20
2018-07-15T14:31:11.896Z,23.88
2018-07-15T14:33:46.724Z,24.26
2018-07-15T14:36:16.477Z,23.14
2018-07-15T14:38:54.420Z,22.61
2018-07-15T14:41:27.557Z,24.15
2018-07-15T14:43:57.347Z,23.38
2018-07-15T14:46:27.970Z,25.00
2018-07-15T14:48:57.925Z,23.25
2018-07-15T14:51:27.669Z,23.32
2018-07-15T14:54:01.947Z,23.35
2018-07-15T14:56:31.826Z,22.65
2018-07-15T14:59:01.422Z,23.45
2018-07-15T15:01:30.769Z,23.56
2018-07-15T15:04:00.035Z,24.28
2018-07-15T15:06:29.980Z,24.46
2018-07-15T15:09:02.536Z,25.46
2018-07-15T15:11:31.950Z,24.39
2018-07-15T15:14:03.114Z,23.28
2018-07-15T15:16:32.473Z,23.84
2018-07-15T15:19:03.118Z,24.50
2018-07-15T15:21:33.241Z,24.42
2018-07-15T15:24:06.884Z,23.12
2018-07-15T15:26:38.190Z,22.74
2018-07-15T15:29:08.986Z,23.52
2018-07-15T15:31:39.678Z,24.84
2018-07-15T15:34:10.027Z,24.20
2018-07-15T15:36:39.644Z,24.33
2018-07-15T15:39:09.052Z,24.81
2018-07-15T15:41:38.347Z,24.63
2018-07-15T15:44:07.624Z,25.00
2018-07-15T15:46:36.933Z,24.52
2018-07-15T15:49:06.248Z,25.44
2018-07-15T15:51:35.625Z,24.93
2018-07-15T15:54:05.043Z,25.59
2018-07-15T15:56:34.353Z,25.65
2018-07-15T15:59:03.773Z,25.55
2018-07-15T16:01:33.095Z,25.14
2018-07-15T16:04:02.516Z,27.02
2018-07-15T16:06:31.841Z,25.67
2018-07-15T16:09:01.153Z,25.12
2018-07-15T16:11:30.550Z,25.32
2018-07-15T16:13:59.863Z,26.38
2018-07-15T16:16:29.173Z,26.61
2018-07-15T16:18:58.493Z,25.78
2018-07-15T16:21:27.615Z,25.52
2018-07-15T16:23:57.026Z,26.96
2018-07-15T16:26:26.315Z,26.39
2018-07-15T16:28:55.570Z,26.36
2018-07-15T16:31:24.859Z,26.47
2018-07-15T16:33:54.252Z,26.58
2018-07-15T16:36:23.530Z,26.59
2018-07-15T16:38:52.904Z,26.82
2018-07-15T16:41:22.246Z,27.08
2018-07-15T16:43:51.515Z,26.17
2018-07-15T16:46:20.853Z,26.88
2018-07-15T16:48:50.207Z,27.96
2018-07-15T16:51:19.453Z,29.17
2018-07-15T16:53:48.511Z,26.57
2018-07-15T16:56:17.885Z,26.43
2018-07-15T16:58:47.112Z,25.82
2018-07-15T17:01:16.369Z,26.66
2018-07-15T17:03:45.849Z,26.19
2018-07-15T17:06:15.211Z,26.44
2018-07-15T17:08:44.478Z,27.05
2018-07-15T17:11:13.899Z,26.55
2018-07-15T17:13:43.194Z,27.06
2018-07-15T17:16:12.524Z,27.34
2018-07-15T17:18:42.125Z,26.96
2018-07-15T17:21:11.477Z,26.89
2018-07-15T17:23:40.890Z,26.20
2018-07-15T17:26:10.301Z,26.58
2018-07-15T17:28:39.608Z,27.77
2018-07-15T17:31:08.936Z,26.64
2018-07-15T17:33:38.220Z,27.68
2018-07-15T17:36:07.564Z,27.78
2018-07-15T17:38:36.882Z,27.77
2018-07-15T17:41:06.302Z,26.92
2018-07-15T17:43:35.609Z,27.65
2018-07-15T17:46:04.952Z,27.96
2018-07-15T17:48:34.239Z,27.53
2018-07-15T17:51:03.517Z,27.60
2018-07-15T17:53:32.822Z,28.63
2018-07-15T17:56:02.153Z,28.07
2018-07-15T17:58:31.625Z,27.48
2018-07-15T18:01:00.817Z,27.50
2018-07-15T18:03:30.161Z,28.40
2018-07-15T18:05:59.622Z,27.90
2018-07-15T18:08:28.627Z,28.91
2018-07-15T18:10:57.967Z,28.52
2018-07-15T18:13:27.383Z,29.38
2018-07-15T18:15:56.639Z,28.93
2018-07-15T18:18:25.915Z,29.95
2018-07-15T18:20:55.325Z,29.47
2018-07-15T18:23:24.590Z,28.58
2018-07-15T18:25:53.971Z,29.14
2018-07-15T18:28:23.494Z,32.60
2018-07-15T18:30:52.761Z,29.08
2018-07-15T18:33:22.073Z,28.96
2018-07-15T18:35:51.422Z,29.13
2018-07-15T18:38:20.843Z,28.69
2018-07-15T18:40:50.143Z,29.13
2018-07-15T18:43:19.552Z,29.52
2018-07-15T18:45:48.949Z,28.73
2018-07-15T18:48:18.927Z,28.65
2018-07-15T18:50:48.265Z,29.86
2018-07-15T18:53:17.883Z,30.23
2018-07-15T18:55:47.426Z,30.44
2018-07-15T18:58:16.945Z,30.70
2018-07-15T19:00:46.773Z,30.15
2018-07-15T19:03:16.350Z,29.75
2018-07-15T19:05:45.859Z,30.82
2018-07-15T19:08:15.277Z,30.82
2018-07-15T19:10:44.947Z,30.16
2018-07-15T19:13:14.568Z,30.23
2018-07-15T19:15:44.111Z,31.50
2018-07-15T19:18:13.242Z,31.00
2018-07-15T19:20:42.843Z,31.96
2018-07-15T19:23:12.485Z,32.09
2018-07-15T19:25:42.322Z,31.07
2018-07-15T19:28:11.985Z,31.41
2018-07-15T19:30:41.976Z,32.05
2018-07-15T19:33:11.672Z,32.15
2018-07-15T19:35:41.321Z,32.24
2018-07-15T19:38:11.557Z,32.95
2018-07-15T19:40:41.112Z,32.03
2018-07-15T19:43:10.679Z,32.58
2018-07-15T19:45:40.280Z,32.57
2018-07-15T19:48:09.640Z,33.52
2018-07-15T19:50:39.072Z,32.42
2018-07-15T19:53:08.472Z,33.17
2018-07-15T19:55:37.800Z,33.10
2018-07-15T19:58:07.183Z,33.76
2018-07-15T20:00:36.608Z,34.12
2018-07-15T20:03:05.901Z,33.91
2018-07-15T20:05:35.192Z,35.09
2018-07-15T20:08:04.542Z,34.29
2018-07-15T20:10:34.069Z,35.00
2018-07-15T20:13:03.358Z,33.72
2018-07-15T20:15:32.428Z,34.10
2018-07-15T20:18:01.777Z,34.97
2018-07-15T20:20:31.029Z,35.59
2018-07-15T20:23:00.452Z,35.28
2018-07-15T20:25:29.961Z,35.46
2018-07-15T20:27:59.930Z,35.61
2018-07-15T20:30:29.187Z,35.37
2018-07-15T20:32:58.451Z,36.19
2018-07-15T20:35:27.747Z,36.53
2018-07-15T20:37:57.295Z,36.89
2018-07-15T20:40:26.649Z,35.94
2018-07-15T20:42:55.979Z,36.75
2018-07-15T20:45:25.464Z,38.02
2018-07-15T20:47:54.781Z,37.03
2018-07-15T20:50:24.245Z,36.80
2018-07-15T20:52:54.005Z,37.42
2018-07-15T20:55:23.309Z,37.23
2018-07-15T20:57:52.665Z,37.98
2018-07-15T21:00:21.974Z,37.12
2018-07-15T21:02:51.314Z,38.30
2018-07-15T21:05:20.631Z,38.19
2018-07-15T21:07:50.051Z,38.04
2018-07-15T21:10:19.427Z,38.58
2018-07-15T21:12:48.685Z,38.92
2018-07-15T21:15:18.445Z,39.31
2018-07-15T21:17:47.921Z,39.36
2018-07-15T21:20:17.557Z,38.84
2018-07-15T21:22:46.865Z,38.99
2018-07-15T21:25:16.183Z,39.62
2018-07-15T21:27:45.512Z,40.29
2018-07-15T21:30:15.009Z,39.26
2018-07-15T21:32:44.340Z,39.47
2018-07-15T21:35:13.866Z,39.58
2018-07-15T21:37:43.630Z,40.00
2018-07-15T21:40:12.943Z,39.48
2018-07-15T21:42:42.685Z,39.92
2018-07-15T21:45:12.129Z,40.52
2018-07-15T21:47:41.945Z,40.00
2018-07-15T21:50:11.295Z,40.17
2018-07-15T21:52:41.097Z,40.50
2018-07-15T21:55:10.524Z,41.30
2018-07-15T21:57:40.486Z,41.77
2018-07-15T22:00:10.188Z,40.76
2018-07-15T22:02:39.547Z,40.57
2018-07-15T22:05:08.819Z,41.47
2018-07-15T22:07:55.417Z,42.30
2018-07-15T22:10:36.981Z,41.46
2018-07-15T22:13:06.226Z,42.15
2018-07-15T22:15:35.535Z,41.87
2018-07-15T22:18:04.861Z,42.12
2018-07-15T22:20:34.295Z,42.18
2018-07-15T22:23:03.552Z,41.74
2018-07-15T22:25:32.917Z,41.91
2018-07-15T22:28:02.734Z,42.28
2018-07-15T22:30:32.125Z,42.47
2018-07-15T22:33:01.634Z,42.68
2018-07-15T22:35:31.085Z,42.28
2018-07-15T22:38:00.455Z,42.87
2018-07-15T22:40:29.857Z,43.92
2018-07-15T22:42:59.363Z,43.79
2018-07-15T22:45:29.681Z,43.83
2018-07-15T22:47:59.301Z,43.19
2018-07-15T22:50:28.619Z,42.86
2018-07-15T22:52:57.898Z,43.06
2018-07-15T22:55:27.217Z,43.23
2018-07-15T22:57:56.621Z,43.69
2018-07-15T23:00:25.888Z,43.23
2018-07-15T23:02:55.181Z,43.61
2018-07-15T23:05:40.800Z,44.19
2018-07-15T23:08:10.410Z,43.95
2018-07-15T23:10:39.510Z,43.06
2018-07-15T23:13:09.758Z,43.89
2018-07-15T23:15:39.579Z,44.22
2018-07-15T23:18:09.006Z,44.05
2018-07-15T23:20:39.188Z,44.05
2018-07-15T23:23:09.286Z,45.15
2018-07-15T23:25:39.090Z,44.83
2018-07-15T23:28:10.251Z,45.08
2018-07-15T23:30:40.362Z,45.07
2018-07-15T23:33:10.241Z,45.03
2018-07-15T23:35:39.633Z,45.32
2018-07-15T23:38:09.473Z,45.64
2018-07-15T23:40:38.806Z,45.51
2018-07-15T23:43:08.215Z,45.42
2018-07-15T23:45:37.600Z,44.71
2018-07-15T23:48:06.991Z,45.99
2018-07-15T23:50:36.303Z,45.77
2018-07-15T23:53:05.618Z,45.94
2018-07-15T23:55:35.049Z,45.15
2018-07-15T23:58:04.414Z,45.16
